Time;durP1;ratioP1;P1;durP2;ratioP2;P2;SDS_P1;SDS_P2;PMS_P1;PMS_P2;Temp;Humidity;BMP_temperature;BMP_pressure;BME280_temperature;BME280_humidity;BME280_pressure;Samples;Min_cycle;Max_cycle;Signal;HPM_P1;HPM_P2
2021/12/24 00:00:25;;;;;;;63.45;30.65;;;;;;;;;;7783350;22;20446;-67
2021/12/24 00:03:42;;;;;;;60.90;30.15;;;;;;;;;;7793676;22;20016;-66
2021/12/24 00:06:45;;;;;;;54.75;29.40;;;;;;;;;;7784186;22;20016;-66
2021/12/24 00:09:48;;;;;;;59.28;29.92;;;;;;;;;;7783583;22;20020;-68
2021/12/24 00:12:58;;;;;;;54.78;29.55;;;;;;;;;;7784836;22;20023;-66
2021/12/24 00:16:08;;;;;;;58.75;30.85;;;;;;;;;;7798722;22;20445;-68
2021/12/24 00:19:20;;;;;;;61.38;31.25;;;;;;;;;;7797080;22;20169;-68
2021/12/24 00:35:51;;;;;;;59.67;31.33;;;;;;;;;;7820316;22;20050;-66
2021/12/24 00:38:54;;;;;;;58.50;31.20;;;;;;;;;;7824645;22;20117;-67
2021/12/24 00:41:57;;;;;;;58.38;30.42;;;;;;;;;;7824437;22;20073;-66
2021/12/24 00:45:01;;;;;;;57.20;31.17;;;;;;;;;;7825001;22;20064;-66
2021/12/24 00:48:07;;;;;;;59.25;29.92;;;;;;;;;;7823789;22;20019;-66
2021/12/24 00:51:22;;;;;;;64.05;31.77;;;;;;;;;;7809283;22;20011;-66
2021/12/24 00:57:49;;;;;;;59.20;30.15;;;;;;;;;;7797522;22;20213;-66
2021/12/24 01:00:52;;;;;;;60.50;31.42;;;;;;;;;;7794938;22;20023;-66
2021/12/24 01:03:57;;;;;;;61.10;30.88;;;;;;;;;;7821910;22;20019;-66
2021/12/24 01:06:59;;;;;;;57.22;30.60;;;;;;;;;;7821020;22;20020;-66
2021/12/24 01:10:04;;;;;;;59.63;31.27;;;;;;;;;;7820964;22;20016;-66
2021/12/24 01:13:08;;;;;;;;;;;;;;;;;;7808132;22;20042;-66
2021/12/24 01:16:20;;;;;;;63.60;31.73;;;;;;;;;;7794886;22;19987;-66
2021/12/24 01:19:26;;;;;;;61.97;30.95;;;;;;;;;;7809327;22;20025;-66
2021/12/24 01:25:59;;;;;;;61.37;32.30;;;;;;;;;;7781560;22;20340;-68
2021/12/24 01:29:32;;;;;;;63.47;31.17;;;;;;;;;;7836804;22;20015;-65
2021/12/24 01:39:20;;;;;;;61.05;30.88;;;;;;;;;;7795316;22;20028;-67
2021/12/24 01:42:44;;;;;;;55.70;30.27;;;;;;;;;;7780449;22;20024;-66
2021/12/24 01:45:47;;;;;;;55.20;28.52;;;;;;;;;;7794211;22;20027;-64
2021/12/24 01:48:51;;;;;;;59.30;31.83;;;;;;;;;;7783176;22;20027;-66
2021/12/24 01:51:55;;;;;;;61.83;31.90;;;;;;;;;;7782246;22;20379;-66
2021/12/24 01:55:02;;;;;;;57.60;31.10;;;;;;;;;;7794649;22;20320;-66
2021/12/24 01:58:04;;;;;;;63.08;30.65;;;;;;;;;;7785521;22;20066;-65
2021/12/24 02:01:10;;;;;;;65.32;31.63;;;;;;;;;;7797821;22;20020;-66
2021/12/24 02:04:15;;;;;;;66.45;33.33;;;;;;;;;;7792720;22;20042;-66
2021/12/24 02:07:19;;;;;;;59.05;30.20;;;;;;;;;;7788305;22;20058;-65
2021/12/24 02:10:25;;;;;;;62.75;30.33;;;;;;;;;;7799018;22;20091;-66
2021/12/24 02:13:29;;;;;;;61.20;31.73;;;;;;;;;;7786232;22;20026;-65
2021/12/24 02:16:58;;;;;;;61.50;31.50;;;;;;;;;;7799031;22;20580;-66
2021/12/24 02:30:07;;;;;;;60.50;30.75;;;;;;;;;;7798689;22;20054;-66
2021/12/24 02:33:11;;;;;;;62.97;29.65;;;;;;;;;;7786211;22;20027;-67
2021/12/24 02:36:15;;;;;;;61.88;31.38;;;;;;;;;;7824222;22;20015;-66
2021/12/24 02:39:21;;;;;;;61.00;33.08;;;;;;;;;;7811371;22;20449;-67
2021/12/24 02:42:26;;;;;;;61.67;33.17;;;;;;;;;;7837285;22;20019;-66
2021/12/24 02:45:33;;;;;;;60.88;31.83;;;;;;;;;;7838827;22;20244;-66
2021/12/24 02:48:59;;;;;;;64.70;33.38;;;;;;;;;;7838628;22;20307;-67
2021/12/24 02:55:28;;;;;;;64.57;32.65;;;;;;;;;;7773913;22;20085;-67
2021/12/24 02:58:37;;;;;;;58.78;32.67;;;;;;;;;;7838576;22;20338;-68
2021/12/24 03:01:43;;;;;;;66.03;33.75;;;;;;;;;;7838319;22;20026;-65
2021/12/24 03:04:46;;;;;;;65.57;33.75;;;;;;;;;;7802672;22;20019;-66
2021/12/24 03:07:53;;;;;;;64.40;32.13;;;;;;;;;;7811365;22;20026;-65
2021/12/24 03:11:00;;;;;;;68.57;33.58;;;;;;;;;;7810498;22;20107;-65
2021/12/24 03:14:06;;;;;;;66.63;35.65;;;;;;;;;;7810701;22;20505;-65
2021/12/24 03:17:13;;;;;;;69.60;35.47;;;;;;;;;;7798277;22;20015;-66
2021/12/24 03:20:15;;;;;;;;;;;;;;;;;;7837633;22;20076;-66
2021/12/24 03:23:34;;;;;;;59.50;32.45;;;;;;;;;;7808883;22;20229;-66
2021/12/24 03:26:38;;;;;;;68.97;34.95;;;;;;;;;;7837630;22;20404;-65
2021/12/24 03:29:41;;;;;;;71.60;34.95;;;;;;;;;;7824207;22;20330;-65
2021/12/24 03:32:45;;;;;;;69.32;35.22;;;;;;;;;;7797652;22;20065;-64
2021/12/24 03:35:48;;;;;;;67.63;34.03;;;;;;;;;;7821269;22;20554;-65
2021/12/24 03:38:54;;;;;;;64.60;32.65;;;;;;;;;;7794250;22;20019;-65
2021/12/24 03:41:57;;;;;;;59.85;33.08;;;;;;;;;;7835309;22;20354;-65
2021/12/24 03:45:08;;;;;;;64.10;34.72;;;;;;;;;;7794981;22;20022;-65
2021/12/24 03:48:19;;;;;;;65.85;34.28;;;;;;;;;;7806787;22;20504;-65
2021/12/24 03:51:36;;;;;;;73.55;36.13;;;;;;;;;;7809406;22;20026;-65
2021/12/24 03:54:57;;;;;;;66.68;35.80;;;;;;;;;;7810345;22;20476;-66
2021/12/24 03:58:03;;;;;;;66.28;34.92;;;;;;;;;;7835989;22;20763;-65
2021/12/24 04:01:25;;;;;;;69.07;34.08;;;;;;;;;;7838694;22;20022;-66
2021/12/24 04:05:00;;;;;;;70.47;35.08;;;;;;;;;;7791102;22;20019;-67
2021/12/24 04:08:30;;;;;;;66.30;35.05;;;;;;;;;;7822383;22;20027;-67
2021/12/24 04:12:10;;;;;;;73.60;37.00;;;;;;;;;;7825113;22;20022;-66
2021/12/24 04:15:13;;;;;;;66.20;35.55;;;;;;;;;;7824363;22;20016;-66
2021/12/24 04:18:20;;;;;;;66.57;36.47;;;;;;;;;;7797283;22;20098;-66
2021/12/24 04:24:52;;;;;;;68.28;35.03;;;;;;;;;;7809361;22;20015;-67
2021/12/24 04:27:59;;;;;;;68.53;34.83;;;;;;;;;;7836144;22;20019;-67
2021/12/24 04:31:04;;;;;;;65.72;34.83;;;;;;;;;;7809796;22;20061;-67
2021/12/24 04:34:08;;;;;;;66.20;36.38;;;;;;;;;;7797246;22;20064;-68
2021/12/24 05:04:03;;;;;;;66.50;35.63;;;;;;;;;;7804982;22;20366;-66
2021/12/24 05:07:16;;;;;;;68.85;34.80;;;;;;;;;;7809394;22;20023;-64
2021/12/24 05:10:24;;;;;;;66.85;36.38;;;;;;;;;;7809619;22;20072;-65
2021/12/24 05:13:27;;;;;;;67.68;33.67;;;;;;;;;;7837800;22;20015;-66
2021/12/24 05:17:23;;;;;;;68.18;35.92;;;;;;;;;;7798897;22;20026;-65
2021/12/24 05:24:22;;;;;;;71.63;34.85;;;;;;;;;;7809283;22;20022;-66
2021/12/24 05:27:25;;;;;;;68.20;35.15;;;;;;;;;;7797497;22;20442;-65
2021/12/24 05:30:29;;;;;;;69.80;35.15;;;;;;;;;;7797936;22;20442;-65
2021/12/24 05:33:34;;;;;;;67.65;35.45;;;;;;;;;;7795812;22;20015;-65
2021/12/24 05:36:39;;;;;;;63.97;35.17;;;;;;;;;;7834966;22;20103;-65
2021/12/24 05:39:42;;;;;;;72.05;34.85;;;;;;;;;;7797145;22;20011;-65
2021/12/24 05:42:45;;;;;;;66.53;34.45;;;;;;;;;;7796184;22;20362;-66
2021/12/24 05:45:48;;;;;;;71.00;37.15;;;;;;;;;;7796576;22;20011;-65
2021/12/24 05:49:03;;;;;;;71.55;36.03;;;;;;;;;;7809040;22;20077;-66
2021/12/24 05:52:07;;;;;;;69.28;36.15;;;;;;;;;;7810073;22;20019;-66
2021/12/24 05:55:14;;;;;;;61.90;33.88;;;;;;;;;;7808419;22;20015;-66
2021/12/24 05:58:18;;;;;;;67.28;34.47;;;;;;;;;;7822207;22;20023;-65
2021/12/24 06:01:23;;;;;;;69.28;33.50;;;;;;;;;;7797022;22;20023;-65
2021/12/24 06:04:28;;;;;;;66.20;34.35;;;;;;;;;;7830555;22;20068;-66
2021/12/24 06:07:31;;;;;;;67.97;35.40;;;;;;;;;;7822140;22;20473;-65
2021/12/24 06:10:34;;;;;;;71.97;36.65;;;;;;;;;;7823881;22;20019;-66
2021/12/24 06:13:37;;;;;;;72.43;36.25;;;;;;;;;;7796730;22;20047;-66
2021/12/24 06:16:48;;;;;;;66.75;35.42;;;;;;;;;;7795708;22;20027;-65
2021/12/24 06:19:54;;;;;;;66.45;36.75;;;;;;;;;;7836743;22;20015;-66
2021/12/24 06:22:57;;;;;;;65.53;34.90;;;;;;;;;;7823821;22;20027;-67
2021/12/24 06:26:01;;;;;;;67.25;35.25;;;;;;;;;;7823528;22;20447;-66
2021/12/24 06:29:07;;;;;;;70.88;36.00;;;;;;;;;;7836454;22;20023;-67
2021/12/24 06:32:10;;;;;;;69.32;36.72;;;;;;;;;;7823515;22;20090;-66
2021/12/24 06:35:14;;;;;;;68.28;35.03;;;;;;;;;;7821912;22;20319;-67
2021/12/24 06:38:17;;;;;;;66.38;35.13;;;;;;;;;;7796097;22;20500;-67
2021/12/24 06:41:20;;;;;;;68.78;34.75;;;;;;;;;;7796451;22;20023;-67
2021/12/24 06:44:23;;;;;;;67.22;34.83;;;;;;;;;;7796504;22;20019;-67
2021/12/24 06:47:26;;;;;;;66.90;35.00;;;;;;;;;;7796390;22;20449;-67
2021/12/24 06:50:31;;;;;;;69.80;35.63;;;;;;;;;;7826182;22;20027;-67
2021/12/24 06:53:34;;;;;;;64.20;32.67;;;;;;;;;;7798192;22;20019;-67
2021/12/24 06:56:37;;;;;;;53.92;30.42;;;;;;;;;;7825663;22;20042;-67
2021/12/24 06:59:40;;;;;;;60.75;30.65;;;;;;;;;;7798196;22;20022;-67
2021/12/24 07:02:46;;;;;;;48.73;24.77;;;;;;;;;;7811613;22;20437;-65
2021/12/24 07:05:50;;;;;;;39.95;21.65;;;;;;;;;;7825919;22;20298;-65
2021/12/24 07:08:53;;;;;;;47.55;24.00;;;;;;;;;;7823345;22;20015;-67
2021/12/24 07:11:58;;;;;;;46.90;24.80;;;;;;;;;;7838632;22;20019;-65
2021/12/24 07:15:01;;;;;;;44.63;23.33;;;;;;;;;;7798152;22;20015;-66
2021/12/24 07:18:06;;;;;;;44.20;23.27;;;;;;;;;;7838305;22;20094;-66
2021/12/24 07:21:13;;;;;;;41.88;23.05;;;;;;;;;;7838567;22;20694;-66
2021/12/24 07:24:16;;;;;;;40.55;22.63;;;;;;;;;;7823922;22;20015;-65
2021/12/24 07:27:19;;;;;;;47.40;23.38;;;;;;;;;;7825576;22;20334;-66
2021/12/24 07:30:22;;;;;;;43.45;23.95;;;;;;;;;;7824734;22;20015;-66
2021/12/24 07:33:25;;;;;;;42.78;22.92;;;;;;;;;;7797767;22;20090;-67
2021/12/24 07:36:30;;;;;;;42.20;22.25;;;;;;;;;;7810566;22;20015;-66
2021/12/24 07:39:32;;;;;;;42.30;22.35;;;;;;;;;;7824729;22;20104;-66
2021/12/24 07:42:36;;;;;;;47.75;24.30;;;;;;;;;;7798503;22;20038;-67
2021/12/24 07:45:40;;;;;;;41.90;21.45;;;;;;;;;;7797353;22;20011;-68
2021/12/24 07:48:48;;;;;;;39.58;23.23;;;;;;;;;;7823573;22;20019;-68
2021/12/24 07:52:01;;;;;;;44.83;24.52;;;;;;;;;;7809942;22;20023;-67
2021/12/24 07:55:09;;;;;;;39.13;21.55;;;;;;;;;;7836120;22;20064;-68
2021/12/24 07:58:20;;;;;;;40.42;22.92;;;;;;;;;;7837552;22;20389;-67
2021/12/24 08:01:24;;;;;;;43.00;23.23;;;;;;;;;;7824752;22;20022;-68
2021/12/24 08:04:27;;;;;;;40.45;20.92;;;;;;;;;;7797531;22;20011;-68
2021/12/24 08:07:32;;;;;;;36.33;20.15;;;;;;;;;;7824795;22;20104;-68
2021/12/24 08:10:35;;;;;;;38.58;21.63;;;;;;;;;;7797585;22;20089;-68
2021/12/24 08:13:38;;;;;;;36.65;20.27;;;;;;;;;;7796921;22;20049;-67
2021/12/24 08:16:44;;;;;;;40.73;21.67;;;;;;;;;;7836069;22;20098;-67
2021/12/24 08:19:47;;;;;;;42.33;21.83;;;;;;;;;;7797248;22;20019;-68
2021/12/24 08:22:54;;;;;;;40.20;21.00;;;;;;;;;;7837198;22;20437;-67
2021/12/24 08:26:01;;;;;;;37.35;20.65;;;;;;;;;;7837217;22;20515;-68
2021/12/24 08:29:04;;;;;;;40.03;20.65;;;;;;;;;;7824569;22;20019;-68
2021/12/24 08:32:07;;;;;;;38.47;22.42;;;;;;;;;;7824632;22;20019;-68
2021/12/24 08:35:11;;;;;;;41.33;21.85;;;;;;;;;;7823774;22;20015;-68
2021/12/24 08:38:19;;;;;;;40.08;21.92;;;;;;;;;;7837457;22;20015;-68
2021/12/24 08:41:22;;;;;;;38.08;21.00;;;;;;;;;;7837110;22;20019;-68
2021/12/24 08:44:27;;;;;;;33.95;20.02;;;;;;;;;;7797251;22;20041;-68
2021/12/24 08:47:30;;;;;;;37.78;21.02;;;;;;;;;;7797341;22;20144;-68
2021/12/24 08:50:33;;;;;;;38.58;21.30;;;;;;;;;;7797146;22;20022;-68
2021/12/24 08:53:37;;;;;;;34.65;19.65;;;;;;;;;;7824800;22;20023;-68
2021/12/24 08:56:40;;;;;;;36.92;19.95;;;;;;;;;;7825516;22;20015;-68
2021/12/24 08:59:45;;;;;;;35.10;19.20;;;;;;;;;;7837510;22;20019;-68
2021/12/24 09:02:52;;;;;;;35.90;19.70;;;;;;;;;;7810250;22;20018;-68
2021/12/24 09:05:55;;;;;;;36.25;19.25;;;;;;;;;;7823783;22;20020;-68
2021/12/24 09:08:59;;;;;;;37.08;20.33;;;;;;;;;;7797094;22;20026;-68
2021/12/24 09:12:02;;;;;;;37.63;21.20;;;;;;;;;;7823850;22;20023;-68
2021/12/24 09:15:09;;;;;;;32.80;18.38;;;;;;;;;;7809701;22;20015;-68
2021/12/24 09:18:12;;;;;;;37.90;20.25;;;;;;;;;;7796195;22;20310;-68
2021/12/24 09:21:17;;;;;;;35.83;20.23;;;;;;;;;;7796978;22;20327;-68
2021/12/24 09:24:23;;;;;;;38.42;20.17;;;;;;;;;;7824211;22;20019;-66
2021/12/24 09:27:27;;;;;;;32.13;18.83;;;;;;;;;;7834657;22;20312;-68
2021/12/24 09:30:30;;;;;;;27.73;15.48;;;;;;;;;;7797028;22;20015;-67
2021/12/24 09:33:33;;;;;;;26.90;15.68;;;;;;;;;;7823617;22;20065;-67
2021/12/24 09:36:38;;;;;;;31.30;16.70;;;;;;;;;;7809344;22;20082;-67
2021/12/24 09:39:42;;;;;;;25.40;13.45;;;;;;;;;;7823612;22;20042;-67
2021/12/24 09:42:45;;;;;;;24.58;14.07;;;;;;;;;;7823732;22;20015;-68
2021/12/24 09:45:49;;;;;;;23.77;13.50;;;;;;;;;;7824241;22;20350;-68
2021/12/24 09:48:52;;;;;;;26.77;15.60;;;;;;;;;;7823637;22;20054;-68
2021/12/24 09:51:55;;;;;;;26.67;15.07;;;;;;;;;;7797159;22;20041;-68
2021/12/24 09:55:06;;;;;;;25.55;14.27;;;;;;;;;;7824235;22;20015;-68
2021/12/24 09:58:09;;;;;;;25.27;14.70;;;;;;;;;;7824667;22;20019;-68
2021/12/24 10:01:27;;;;;;;22.83;12.70;;;;;;;;;;7824514;22;20031;-68
2021/12/24 10:04:35;;;;;;;23.48;12.50;;;;;;;;;;7831294;22;20453;-67
2021/12/24 10:07:37;;;;;;;23.45;12.80;;;;;;;;;;7823696;22;20025;-67
2021/12/24 10:10:43;;;;;;;21.65;12.35;;;;;;;;;;7796196;22;20015;-67
2021/12/24 10:13:46;;;;;;;22.55;12.40;;;;;;;;;;7823850;22;20094;-68
2021/12/24 10:16:51;;;;;;;25.13;13.57;;;;;;;;;;7823530;22;20027;-68
2021/12/24 10:19:55;;;;;;;24.80;14.40;;;;;;;;;;7824156;22;20015;-68
2021/12/24 10:23:11;;;;;;;24.65;14.43;;;;;;;;;;7810234;22;20088;-68
2021/12/24 10:26:17;;;;;;;23.52;13.70;;;;;;;;;;7826423;22;20015;-68
2021/12/24 10:29:21;;;;;;;29.88;15.25;;;;;;;;;;7811654;22;20011;-68
2021/12/24 10:32:24;;;;;;;27.75;15.05;;;;;;;;;;7798217;22;20026;-67
2021/12/24 10:35:30;;;;;;;30.92;15.77;;;;;;;;;;7830729;22;20361;-67
2021/12/24 10:38:32;;;;;;;27.63;15.68;;;;;;;;;;7798778;22;20022;-68
2021/12/24 10:41:42;;;;;;;28.70;15.52;;;;;;;;;;7812056;22;20030;-68
2021/12/24 10:44:47;;;;;;;28.73;14.88;;;;;;;;;;7810840;22;20229;-69
2021/12/24 10:47:52;;;;;;;26.52;15.40;;;;;;;;;;7811132;22;20332;-68
2021/12/24 10:51:04;;;;;;;23.63;14.23;;;;;;;;;;7798606;22;20015;-68
2021/12/24 10:54:07;;;;;;;25.63;14.60;;;;;;;;;;7835241;22;20465;-67
2021/12/24 10:57:17;;;;;;;27.77;15.60;;;;;;;;;;7823802;22;20019;-69
2021/12/24 11:00:24;;;;;;;27.35;14.90;;;;;;;;;;7810512;22;20098;-66
2021/12/24 11:03:28;;;;;;;25.88;15.18;;;;;;;;;;7835017;22;20384;-67
2021/12/24 11:06:32;;;;;;;26.73;15.75;;;;;;;;;;7821332;22;20339;-67
2021/12/24 11:09:35;;;;;;;27.52;14.85;;;;;;;;;;7794765;22;20015;-67
2021/12/24 11:12:43;;;;;;;24.17;14.43;;;;;;;;;;7807253;22;20022;-66
2021/12/24 11:15:47;;;;;;;25.80;15.18;;;;;;;;;;7807556;22;20204;-68
2021/12/24 11:18:56;;;;;;;26.30;14.90;;;;;;;;;;7825553;22;20015;-68
2021/12/24 11:22:03;;;;;;;27.55;15.38;;;;;;;;;;7838013;22;20141;-66
2021/12/24 11:25:06;;;;;;;26.75;14.45;;;;;;;;;;7810609;22;20128;-67
2021/12/24 11:28:11;;;;;;;27.88;15.35;;;;;;;;;;7797225;22;20019;-67
2021/12/24 11:31:15;;;;;;;30.58;16.42;;;;;;;;;;7838238;22;20391;-68
2021/12/24 11:34:18;;;;;;;26.10;15.50;;;;;;;;;;7825304;22;20026;-68
2021/12/24 11:37:21;;;;;;;27.70;15.18;;;;;;;;;;7797517;22;20391;-67
2021/12/24 11:40:25;;;;;;;27.90;14.57;;;;;;;;;;7826051;22;20453;-68
2021/12/24 11:43:31;;;;;;;28.48;16.15;;;;;;;;;;7825533;22;20038;-68
2021/12/24 11:46:37;;;;;;;29.95;16.27;;;;;;;;;;7838872;22;20026;-68
2021/12/24 11:49:44;;;;;;;32.75;17.55;;;;;;;;;;7798503;22;20072;-68
2021/12/24 11:52:48;;;;;;;28.50;15.75;;;;;;;;;;7798781;22;20449;-68
2021/12/24 11:55:54;;;;;;;26.92;16.40;;;;;;;;;;7839056;22;20019;-69
2021/12/24 11:58:59;;;;;;;28.27;16.75;;;;;;;;;;7797915;22;20022;-68
2021/12/24 12:02:05;;;;;;;29.85;17.08;;;;;;;;;;7811377;22;20023;-68
2021/12/24 12:05:18;;;;;;;33.03;17.70;;;;;;;;;;7825446;22;20025;-68
2021/12/24 12:08:40;;;;;;;32.42;18.33;;;;;;;;;;7811770;22;20014;-67
2021/12/24 12:11:44;;;;;;;66.43;35.88;;;;;;;;;;7836937;22;20080;-67
2021/12/24 12:14:49;;;;;;;29.05;17.55;;;;;;;;;;7826435;22;20015;-67
2021/12/24 12:17:53;;;;;;;30.20;17.77;;;;;;;;;;7825745;22;20021;-68
2021/12/24 12:21:08;;;;;;;30.23;16.35;;;;;;;;;;7825108;22;20319;-67
2021/12/24 12:27:39;;;;;;;29.13;16.00;;;;;;;;;;7799603;22;20106;-67
2021/12/24 12:30:49;;;;;;;31.35;16.70;;;;;;;;;;7839136;22;20244;-66
2021/12/24 12:33:53;;;;;;;28.25;16.45;;;;;;;;;;7834372;22;20015;-67
2021/12/24 12:37:11;;;;;;;25.38;14.60;;;;;;;;;;7826196;22;20330;-68
2021/12/24 12:40:28;;;;;;;29.25;15.50;;;;;;;;;;7839269;22;20577;-69
2021/12/24 12:43:31;;;;;;;28.65;15.82;;;;;;;;;;7836570;22;20019;-68
2021/12/24 12:46:37;;;;;;;25.00;14.63;;;;;;;;;;7825144;22;20033;-69
2021/12/24 12:49:40;;;;;;;;;;;;;;;;;;7811575;22;20519;-68
2021/12/24 12:52:43;;;;;;;27.52;15.00;;;;;;;;;;7826520;22;20234;-69
2021/12/24 12:56:09;;;;;;;23.17;13.27;;;;;;;;;;7824517;22;20015;-67
2021/12/24 12:59:20;;;;;;;26.02;14.88;;;;;;;;;;7839021;22;20019;-68
2021/12/24 13:02:44;;;;;;;24.77;13.82;;;;;;;;;;7810770;22;20019;-66
2021/12/24 13:06:08;;;;;;;24.55;13.63;;;;;;;;;;7825775;22;20392;-67
2021/12/24 13:09:12;;;;;;;23.75;12.57;;;;;;;;;;7807486;22;20092;-68
2021/12/24 13:12:16;;;;;;;25.77;13.35;;;;;;;;;;7825041;22;20023;-67
2021/12/24 13:15:22;;;;;;;24.80;13.18;;;;;;;;;;7838811;22;20086;-68
2021/12/24 13:18:32;;;;;;;21.75;12.15;;;;;;;;;;7796869;22;20041;-68
2021/12/24 13:25:00;;;;;;;24.35;12.45;;;;;;;;;;7810715;22;20019;-68
2021/12/24 13:28:03;;;;;;;27.63;12.82;;;;;;;;;;7824992;22;20417;-68
2021/12/24 13:31:13;;;;;;;22.23;11.88;;;;;;;;;;7824419;22;20023;-68
2021/12/24 13:34:18;;;;;;;28.33;12.88;;;;;;;;;;7832596;22;20023;-68
2021/12/24 13:37:21;;;;;;;21.30;11.53;;;;;;;;;;7825168;22;20469;-70
2021/12/24 13:40:26;;;;;;;27.58;12.32;;;;;;;;;;7824324;22;20019;-67
2021/12/24 13:43:31;;;;;;;24.17;11.63;;;;;;;;;;7824437;22;20019;-69
2021/12/24 13:46:37;;;;;;;23.58;12.20;;;;;;;;;;7825595;22;20032;-69
2021/12/24 13:50:10;;;;;;;25.13;11.68;;;;;;;;;;7836739;22;20024;-69
2021/12/24 13:56:38;;;;;;;22.50;11.43;;;;;;;;;;7839306;22;20068;-69
2021/12/24 13:59:41;;;;;;;27.60;13.18;;;;;;;;;;7827929;22;20050;-66
2021/12/24 14:02:46;;;;;;;;;;;;;;;;;;7814066;22;20065;-66
2021/12/24 14:05:52;;;;;;;21.15;11.25;;;;;;;;;;7800075;22;19920;-67
2021/12/24 14:08:56;;;;;;;25.00;12.95;;;;;;;;;;7838250;22;20019;-67
2021/12/24 14:12:03;;;;;;;23.42;11.20;;;;;;;;;;7812772;22;20350;-67
2021/12/24 14:15:11;;;;;;;21.20;10.70;;;;;;;;;;7825614;22;20015;-67
2021/12/24 14:18:31;;;;;;;19.65;9.50;;;;;;;;;;7841997;22;20339;-67
2021/12/24 14:21:46;;;;;;;20.08;10.20;;;;;;;;;;7812858;22;20022;-67
2021/12/24 14:24:51;;;;;;;118.03;54.67;;;;;;;;;;7826887;22;20030;-67
2021/12/24 14:27:54;;;;;;;21.50;11.80;;;;;;;;;;7827375;22;20015;-67
2021/12/24 14:30:58;;;;;;;30.35;13.93;;;;;;;;;;7827510;22;20019;-67
2021/12/24 14:34:02;;;;;;;22.05;10.70;;;;;;;;;;7825845;22;20396;-66
2021/12/24 14:37:11;;;;;;;22.20;11.45;;;;;;;;;;7839722;22;20015;-67
2021/12/24 14:40:15;;;;;;;20.92;11.23;;;;;;;;;;7812657;22;20072;-67
2021/12/24 14:43:19;;;;;;;21.23;10.50;;;;;;;;;;7827132;22;20015;-67
2021/12/24 14:46:25;;;;;;;21.92;11.15;;;;;;;;;;7826543;22;20022;-67
2021/12/24 14:49:31;;;;;;;19.45;10.20;;;;;;;;;;7827101;22;20019;-67
2021/12/24 14:52:36;;;;;;;21.77;11.48;;;;;;;;;;7839618;22;20073;-66
2021/12/24 14:55:42;;;;;;;21.85;11.13;;;;;;;;;;7827057;22;20046;-64
2021/12/24 14:58:46;;;;;;;21.75;11.35;;;;;;;;;;7838524;22;20383;-66
2021/12/24 15:01:51;;;;;;;20.67;10.98;;;;;;;;;;7820932;22;20045;-65
2021/12/24 15:04:54;;;;;;;;;;;;;;;;;;7826231;22;20019;-65
2021/12/24 15:08:10;;;;;;;20.33;10.10;;;;;;;;;;7791361;22;19914;-65
2021/12/24 15:11:18;;;;;;;21.88;11.23;;;;;;;;;;7793086;22;20011;-65
2021/12/24 15:14:27;;;;;;;19.23;10.70;;;;;;;;;;7833146;22;20015;-65
2021/12/24 15:17:37;;;;;;;27.77;12.77;;;;;;;;;;7829937;22;20019;-65
2021/12/24 15:20:40;;;;;;;21.75;11.13;;;;;;;;;;7830295;22;20011;-65
2021/12/24 15:23:45;;;;;;;21.20;10.85;;;;;;;;;;7819339;22;20029;-65
2021/12/24 15:26:48;;;;;;;22.33;10.77;;;;;;;;;;7791853;22;20018;-66
2021/12/24 15:29:52;;;;;;;24.90;11.95;;;;;;;;;;7793188;22;20011;-66
2021/12/24 15:32:57;;;;;;;;;;;;;;;;;;7835942;22;20094;-66
2021/12/24 15:36:01;;;;;;;22.85;11.77;;;;;;;;;;7822997;22;19915;-66
2021/12/24 15:39:06;;;;;;;21.17;11.63;;;;;;;;;;7826237;22;20019;-66
2021/12/24 15:42:11;;;;;;;22.00;11.75;;;;;;;;;;7836912;22;20019;-66
2021/12/24 15:45:14;;;;;;;22.35;11.90;;;;;;;;;;7826090;22;20019;-66
2021/12/24 15:48:18;;;;;;;21.75;10.57;;;;;;;;;;7826107;22;20022;-66
2021/12/24 15:51:21;;;;;;;27.98;11.23;;;;;;;;;;7825439;22;20017;-66
2021/12/24 15:54:26;;;;;;;21.13;10.93;;;;;;;;;;7826289;22;20041;-65
2021/12/24 15:57:29;;;;;;;18.48;10.45;;;;;;;;;;7798012;22;20025;-65
2021/12/24 16:00:34;;;;;;;20.08;10.43;;;;;;;;;;7798440;22;20015;-66
2021/12/24 16:03:37;;;;;;;18.25;11.05;;;;;;;;;;7825395;22;20022;-65
2021/12/24 16:06:40;;;;;;;22.13;11.38;;;;;;;;;;7825541;22;20019;-65
2021/12/24 16:09:46;;;;;;;23.25;11.35;;;;;;;;;;7825931;22;20019;-66
2021/12/24 16:12:52;;;;;;;19.73;10.60;;;;;;;;;;7810257;22;20377;-66
2021/12/24 16:15:56;;;;;;;24.60;11.82;;;;;;;;;;7824103;22;20405;-65
2021/12/24 16:19:00;;;;;;;22.40;12.63;;;;;;;;;;7825410;22;20015;-66
2021/12/24 16:22:07;;;;;;;;;;;;;;;;;;7839502;22;20348;-66
2021/12/24 16:25:13;;;;;;;22.63;11.45;;;;;;;;;;7825227;22;19915;-66
2021/12/24 16:28:16;;;;;;;19.48;11.00;;;;;;;;;;7838330;22;20375;-66
2021/12/24 16:31:20;;;;;;;22.02;12.15;;;;;;;;;;7825776;22;20021;-64
2021/12/24 16:34:23;;;;;;;24.23;12.88;;;;;;;;;;7822984;22;20015;-65
2021/12/24 16:37:29;;;;;;;23.85;12.45;;;;;;;;;;7824236;22;20019;-66
2021/12/24 16:40:34;;;;;;;;;;;;;;;;;;7838729;22;20015;-65
2021/12/24 16:43:39;;;;;;;20.75;11.85;;;;;;;;;;7837835;22;19925;-66
2021/12/24 16:46:42;;;;;;;24.92;11.70;;;;;;;;;;7797833;22;20015;-66
2021/12/24 16:49:48;;;;;;;;;;;;;;;;;;7838733;22;20027;-65
2021/12/24 16:52:54;;;;;;;21.15;10.93;;;;;;;;;;7838213;22;19984;-66
2021/12/24 16:55:57;;;;;;;24.10;12.40;;;;;;;;;;7824519;22;20427;-65
2021/12/24 16:59:04;;;;;;;22.77;12.45;;;;;;;;;;7838063;22;20015;-66
2021/12/24 17:02:11;;;;;;;21.83;11.68;;;;;;;;;;7836266;22;20022;-65
2021/12/24 17:05:17;;;;;;;23.35;11.63;;;;;;;;;;7824659;22;20019;-65
2021/12/24 17:08:21;;;;;;;25.13;11.68;;;;;;;;;;7825318;22;20019;-65
2021/12/24 17:11:26;;;;;;;21.45;11.60;;;;;;;;;;7824846;22;20022;-66
2021/12/24 17:14:34;;;;;;;19.77;11.48;;;;;;;;;;7836339;22;20034;-66
2021/12/24 17:17:37;;;;;;;26.70;12.85;;;;;;;;;;7809661;22;20200;-65
2021/12/24 17:20:41;;;;;;;24.67;12.38;;;;;;;;;;7797603;22;20023;-66
2021/12/24 17:23:47;;;;;;;23.20;12.57;;;;;;;;;;7824735;22;20019;-66
2021/12/24 17:26:51;;;;;;;22.15;11.98;;;;;;;;;;7796828;22;20019;-65
2021/12/24 17:29:55;;;;;;;24.90;12.63;;;;;;;;;;7824869;22;20039;-66
2021/12/24 17:33:01;;;;;;;23.48;11.57;;;;;;;;;;7809886;22;20098;-65
2021/12/24 17:36:05;;;;;;;24.70;12.75;;;;;;;;;;7824531;22;20022;-65
2021/12/24 17:39:08;;;;;;;25.75;14.35;;;;;;;;;;7824706;22;20026;-66
2021/12/24 17:42:12;;;;;;;19.98;11.93;;;;;;;;;;7823443;22;20015;-65
2021/12/24 17:45:18;;;;;;;22.17;12.68;;;;;;;;;;7825080;22;20011;-66
2021/12/24 17:48:21;;;;;;;25.50;12.03;;;;;;;;;;7824191;22;20030;-65
2021/12/24 17:51:24;;;;;;;20.95;12.50;;;;;;;;;;7823607;22;20236;-65
2021/12/24 17:54:27;;;;;;;24.38;12.93;;;;;;;;;;7797124;22;20011;-66
2021/12/24 17:57:31;;;;;;;23.17;12.02;;;;;;;;;;7822895;22;20434;-65
2021/12/24 18:00:38;;;;;;;24.15;12.63;;;;;;;;;;7797109;22;20094;-65
2021/12/24 18:03:42;;;;;;;22.08;11.73;;;;;;;;;;7835551;22;20060;-68
2021/12/24 18:06:46;;;;;;;21.88;11.73;;;;;;;;;;7824688;22;20052;-65
2021/12/24 18:09:51;;;;;;;25.60;12.48;;;;;;;;;;7796946;22;20015;-67
2021/12/24 18:12:54;;;;;;;55.13;36.03;;;;;;;;;;7797438;22;20020;-68
2021/12/24 18:16:00;;;;;;;21.88;12.20;;;;;;;;;;7822247;22;20018;-68
2021/12/24 18:19:03;;;;;;;22.27;11.98;;;;;;;;;;7823360;22;20025;-66
2021/12/24 18:22:09;;;;;;;;;;;;;;;;;;7837192;22;20023;-67
2021/12/24 18:25:13;;;;;;;20.88;11.32;;;;;;;;;;7796331;22;19914;-66
2021/12/24 18:28:16;;;;;;;22.33;11.40;;;;;;;;;;7796280;22;20034;-65
2021/12/24 18:31:23;;;;;;;21.10;10.77;;;;;;;;;;7835921;22;20442;-65
2021/12/24 18:34:26;;;;;;;19.25;10.55;;;;;;;;;;7821259;22;20060;-65
2021/12/24 18:37:34;;;;;;;17.70;10.23;;;;;;;;;;7823653;22;20466;-64
2021/12/24 18:40:38;;;;;;;20.55;11.18;;;;;;;;;;7835413;22;20438;-65
2021/12/24 18:43:44;;;;;;;21.05;10.82;;;;;;;;;;7837836;22;20365;-66
2021/12/24 18:46:49;;;;;;;22.00;11.10;;;;;;;;;;7798214;22;20478;-66
2021/12/24 18:49:52;;;;;;;19.35;10.98;;;;;;;;;;7825471;22;20019;-66
2021/12/24 18:52:55;;;;;;;23.40;11.25;;;;;;;;;;7825761;22;20019;-66
2021/12/24 18:55:58;;;;;;;22.60;12.48;;;;;;;;;;7798257;22;20382;-66
2021/12/24 18:59:01;;;;;;;21.67;11.57;;;;;;;;;;7824221;22;20015;-67
2021/12/24 19:02:06;;;;;;;23.77;12.93;;;;;;;;;;7771436;22;20019;-67
2021/12/24 19:05:09;;;;;;;24.83;14.13;;;;;;;;;;7824785;22;20019;-68
2021/12/24 19:08:13;;;;;;;29.90;14.25;;;;;;;;;;7825673;22;20530;-66
2021/12/24 19:11:17;;;;;;;27.05;12.70;;;;;;;;;;7797617;22;20015;-67
2021/12/24 19:14:20;;;;;;;24.02;12.38;;;;;;;;;;7825681;22;20484;-67
2021/12/24 19:17:24;;;;;;;23.15;13.02;;;;;;;;;;7824868;22;20019;-67
2021/12/24 19:20:28;;;;;;;25.90;12.82;;;;;;;;;;7797909;22;20016;-65
2021/12/24 19:23:31;;;;;;;24.15;12.93;;;;;;;;;;7825116;22;20027;-66
2021/12/24 19:26:34;;;;;;;22.73;12.43;;;;;;;;;;7798164;22;20094;-66
2021/12/24 19:29:39;;;;;;;24.65;12.93;;;;;;;;;;7837935;22;20348;-67
2021/12/24 19:32:43;;;;;;;101.63;55.65;;;;;;;;;;7824339;22;20022;-66